Marblehead, MA (01945)

1:26 PM EDT on July 04, 2015 (GMT -0400)
Pitman Road (Salem Harbor) | | Change Station
CLOSE
Current Station
Personal Weather Station
Location: Marblehead, MA
Elevation: 35 ft
Nearby Weather Stations

Elev 35 ft 42.51 °N, 70.86 °W | Updated 18 seconds ago

Overcast
Overcast
70.6 °F
Feels Like 74 °F
N
0.0
Wind Variable Wind from SSE
Gusts 4.0 mph

Today
High -- | Low -- °F
--% Chance of Precip.
Yesterday
High -- | Low -- °F
Precip. -- in
5:11 AM 8:24 PM
Waning Gibbous, 91% visible
Pressure 29.96 in
Visibility 10.0 miles
Clouds Few 11000 ft
Overcast 20000 ft
Heat Index 74 °F
Dew Point 60 °F
Humidity 69%
Rainfall 0.00 in
Snow Depth Not available.
UV 4 out of 12
Pollen 1.90 out of 12
Air Quality Not available.
Flu Activity Not available.
METAR KBVY 041653Z 00000KT 10SM FEW110 OVC200 23/13 A2997 RMK AO2 SLP144 T02280133

More Conditions Fewer Conditions

Pressure 29.96 in
Visibility 10.0 miles
Clouds Few 11000 ft
Overcast 20000 ft
Heat Index 74 °F
Dew Point 60 °F
Humidity 69%
Rainfall 0.00 in
Snow Depth Not available.
UV 4 out of 12
Pollen 1.90 out of 12
Air Quality Not available.
Flu Activity Not available.
METAR KBVY 041653Z 00000KT 10SM FEW110 OVC200 23/13 A2997 RMK AO2 SLP144 T02280133

More Conditions Fewer Conditions

10-Day Weather Forecast

×

Almanac

Astronomy

Jul. 04, 2015 Rise Set
Actual Time
Civil Twilight
Nautical Twilight
Astronomical Twilight
Moon
Length of Visible Light
Length of Day
Tomorrow will be .
, % of the Moon is Illuminated

Today's Extremes

State Highs State Lows

Community

WunderPhotos

Upload Photos

1,835,005 photos uploaded!

WunderBlogs® & News

Nearby

Air Quality

  Air Quality AQ Index Pollutant
Not available.

Snow Depth

Station Depth Elevation

Earthquake Activity

City Distance Mag. Time & Date
Minimum magnitude displayed is 2.5.

Coastal Water Temperatures

Place Temperature

Stations

Nearby Weather Stations

Station Location Temp. Windchill Dew Point Humidity Wind Precip. Elev Updated Type